Time;durP1;ratioP1;P1;durP2;ratioP2;P2;SDS_P1;SDS_P2;PMS_P1;PMS_P2;Temp;Humidity;BMP_temperature;BMP_pressure;BME280_temperature;BME280_humidity;BME280_pressure;Samples;Min_cycle;Max_cycle;Signal;HPM_P1;HPM_P2
2023/07/31 00:01:13;;;;;;;3.90;2.50;;;;;;;17.47;82.24;99551.59;4210871;28;20512;-66
2023/07/31 00:03:39;;;;;;;3.83;2.43;;;;;;;17.49;81.84;99557.69;4230047;28;20440;-67
2023/07/31 00:06:06;;;;;;;4.30;2.40;;;;;;;17.42;81.73;99564.03;4234576;28;23017;-69
2023/07/31 00:08:32;;;;;;;4.90;2.37;;;;;;;17.38;81.73;99557.31;4235562;28;21136;-66
2023/07/31 00:10:59;;;;;;;5.90;2.13;;;;;;;17.45;81.38;99562.75;4229518;28;20567;-65
2023/07/31 00:13:26;;;;;;;3.50;2.03;;;;;;;17.35;81.64;99556.91;4240119;28;20230;-67
2023/07/31 00:15:52;;;;;;;2.80;2.00;;;;;;;17.35;81.59;99571.41;4226651;28;20242;-68
2023/07/31 00:18:19;;;;;;;4.63;2.23;;;;;;;17.39;81.37;99560.88;4219545;28;20356;-67
2023/07/31 00:20:45;;;;;;;3.87;2.30;;;;;;;17.39;81.18;99567.19;4231906;28;20348;-67
2023/07/31 00:23:12;;;;;;;4.77;2.23;;;;;;;17.31;81.57;99578.38;4236391;28;20257;-69
2023/07/31 00:25:39;;;;;;;5.33;2.30;;;;;;;17.25;82.10;99571.00;4229294;28;20594;-67
2023/07/31 00:28:06;;;;;;;2.70;2.10;;;;;;;17.20;82.44;99571.66;4225232;28;22952;-69
2023/07/31 00:30:32;;;;;;;6.73;2.60;;;;;;;17.26;81.54;99564.47;4242017;28;23493;-68
2023/07/31 00:32:59;;;;;;;6.43;2.37;;;;;;;17.21;81.38;99562.41;4252879;28;20243;-69
2023/07/31 00:35:26;;;;;;;5.07;2.13;;;;;;;17.21;81.28;99564.28;4223061;28;20254;-67
2023/07/31 00:37:52;;;;;;;4.07;2.37;;;;;;;17.12;81.86;99566.41;4231544;28;25414;-70
2023/07/31 00:40:19;;;;;;;4.20;2.40;;;;;;;17.05;82.36;99563.66;4248064;28;20239;-69
2023/07/31 00:42:45;;;;;;;3.27;1.87;;;;;;;17.08;82.07;99555.03;4235276;28;26322;-67
2023/07/31 00:45:12;;;;;;;3.00;1.80;;;;;;;17.00;82.35;99554.41;4220961;28;20231;-67
2023/07/31 00:47:39;;;;;;;3.37;2.00;;;;;;;16.87;83.15;99552.50;4205544;28;22475;-66
2023/07/31 00:50:07;;;;;;;3.50;2.17;;;;;;;16.83;83.36;99551.22;4235604;28;20231;-67
2023/07/31 00:52:33;;;;;;;5.40;2.40;;;;;;;16.76;83.85;99556.72;4219046;28;21140;-68
2023/07/31 00:55:00;;;;;;;2.67;1.73;;;;;;;16.83;83.55;99543.88;4224550;28;21180;-65
2023/07/31 00:57:27;;;;;;;3.20;1.87;;;;;;;16.78;83.65;99551.84;4247092;28;20291;-71
2023/07/31 00:59:54;;;;;;;5.07;2.43;;;;;;;16.63;84.51;99550.16;4243175;28;21226;-66
2023/07/31 01:02:20;;;;;;;6.10;2.93;;;;;;;16.58;85.14;99554.56;4236466;28;22459;-69
2023/07/31 01:04:47;;;;;;;4.43;2.33;;;;;;;16.61;85.11;99559.63;4243542;28;23164;-70
2023/07/31 01:07:28;;;;;;;5.40;2.10;;;;;;;16.50;85.40;99555.63;4238998;28;20325;-66
2023/07/31 01:10:04;;;;;;;6.33;2.43;;;;;;;16.41;86.17;99565.91;4244365;28;20230;-67
2023/07/31 01:12:31;;;;;;;7.17;2.37;;;;;;;16.35;86.39;99557.69;4221921;28;20236;-70
2023/07/31 01:15:04;;;;;;;3.53;2.30;;;;;;;16.39;86.18;99557.09;4232843;28;20251;-68
2023/07/31 01:17:31;;;;;;;5.27;2.30;;;;;;;16.43;86.05;99552.88;4249584;28;20373;-70
2023/07/31 01:20:03;;;;;;;3.53;2.00;;;;;;;16.50;86.00;99552.88;4238388;28;20231;-69
2023/07/31 01:22:40;;;;;;;4.30;2.40;;;;;;;16.50;85.96;99561.09;4233207;28;22533;-69
2023/07/31 01:25:21;;;;;;;3.83;2.10;;;;;;;16.54;85.39;99558.78;4226832;28;20305;-67
2023/07/31 01:27:55;;;;;;;10.07;2.27;;;;;;;16.48;85.83;99557.72;4226456;28;20247;-68
2023/07/31 01:30:25;;;;;;;2.97;2.13;;;;;;;16.54;85.49;99564.25;4233344;28;20241;-68
2023/07/31 01:32:52;;;;;;;2.73;1.90;;;;;;;16.62;84.88;99566.78;4216632;28;20338;-68
2023/07/31 01:35:19;;;;;;;4.33;2.27;;;;;;;16.48;85.28;99565.91;4212456;28;20330;-66
2023/07/31 01:37:45;;;;;;;4.33;2.70;;;;;;;16.48;85.19;99569.50;4240322;28;20230;-66
2023/07/31 01:40:12;;;;;;;3.63;2.10;;;;;;;16.46;85.44;99560.66;4240819;28;20299;-71
2023/07/31 01:42:39;;;;;;;3.97;2.70;;;;;;;16.37;85.68;99559.16;4217214;28;20259;-69
2023/07/31 01:45:06;;;;;;;5.13;2.80;;;;;;;16.46;85.46;99566.13;4227722;28;20281;-68
2023/07/31 01:47:32;;;;;;;2.90;2.20;;;;;;;16.48;85.07;99564.03;4231945;28;20276;-67
2023/07/31 01:49:59;;;;;;;5.17;2.50;;;;;;;16.37;85.71;99566.53;4234824;28;20237;-66
2023/07/31 01:52:26;;;;;;;4.70;2.63;;;;;;;16.34;85.78;99561.47;4224823;28;24589;-69
2023/07/31 01:54:52;;;;;;;5.77;2.67;;;;;;;16.25;86.34;99586.25;4247579;28;20238;-67
2023/07/31 01:57:19;;;;;;;3.00;2.37;;;;;;;16.07;87.59;99583.25;4244293;28;20308;-68
2023/07/31 01:59:45;;;;;;;3.87;3.07;;;;;;;16.05;87.89;99571.69;4232207;28;20230;-67
2023/07/31 02:02:13;;;;;;;5.43;2.53;;;;;;;15.92;88.69;99570.59;4241053;28;20841;-68
2023/07/31 02:04:40;;;;;;;5.17;3.03;;;;;;;16.07;87.75;99570.44;4203477;28;24237;-69
2023/07/31 02:07:07;;;;;;;4.73;2.70;;;;;;;16.13;87.15;99574.25;4222532;28;25358;-69
2023/07/31 02:09:33;;;;;;;5.27;3.03;;;;;;;16.05;87.77;99579.88;4228350;28;20251;-68
2023/07/31 02:12:00;;;;;;;7.90;2.77;;;;;;;15.99;88.32;99571.47;4245174;28;20242;-69
2023/07/31 02:14:27;;;;;;;7.20;2.90;;;;;;;16.05;87.91;99577.97;4238358;28;20234;-68
2023/07/31 02:16:54;;;;;;;5.20;3.00;;;;;;;16.00;88.27;99586.81;4220676;28;20252;-66
2023/07/31 02:19:20;;;;;;;5.43;2.80;;;;;;;15.83;89.36;99588.19;4231402;28;22638;-67
2023/07/31 02:21:47;;;;;;;8.87;3.27;;;;;;;15.84;89.02;99587.97;4228294;28;20243;-68
2023/07/31 02:24:14;;;;;;;5.97;3.33;;;;;;;15.81;89.40;99587.50;4222115;28;20235;-70
2023/07/31 02:26:41;;;;;;;6.40;3.50;;;;;;;15.65;90.78;99586.81;4231647;28;20228;-68
2023/07/31 02:29:08;;;;;;;6.03;3.27;;;;;;;15.63;90.90;99593.50;4225289;28;22474;-68
2023/07/31 02:31:35;;;;;;;5.80;3.20;;;;;;;15.59;91.41;99586.78;4217660;28;20546;-68
2023/07/31 02:34:02;;;;;;;5.37;3.40;;;;;;;15.58;91.24;99588.66;4248349;28;21270;-68
2023/07/31 02:36:28;;;;;;;8.13;3.10;;;;;;;15.62;91.44;99595.41;4241637;28;20372;-68
2023/07/31 02:38:55;;;;;;;8.00;3.53;;;;;;;15.67;91.18;99608.44;4216085;28;23713;-69
2023/07/31 02:41:21;;;;;;;4.20;3.43;;;;;;;15.63;91.50;99608.00;4224793;28;20235;-67
2023/07/31 02:43:48;;;;;;;4.53;3.13;;;;;;;15.60;91.58;99602.94;4208619;28;22064;-68
2023/07/31 02:46:15;;;;;;;6.77;3.40;;;;;;;15.60;91.93;99602.94;4243628;28;20243;-68
2023/07/31 02:48:41;;;;;;;5.17;3.23;;;;;;;15.60;92.21;99596.63;4212150;28;21066;-67
2023/07/31 02:51:08;;;;;;;5.23;3.60;;;;;;;15.63;92.09;99583.47;4223576;28;20309;-69
2023/07/31 02:53:34;;;;;;;10.57;4.20;;;;;;;15.70;91.94;99594.38;4228926;28;21800;-68
2023/07/31 02:56:01;;;;;;;9.33;3.87;;;;;;;15.76;91.65;99600.94;4244460;28;20286;-67
2023/07/31 02:58:27;;;;;;;9.60;4.17;;;;;;;15.77;91.29;99592.53;4227674;28;21155;-68
2023/07/31 03:00:54;;;;;;;5.50;3.80;;;;;;;15.79;91.44;99585.00;4230704;28;20336;-67
2023/07/31 03:03:20;;;;;;;6.37;3.43;;;;;;;15.78;91.29;99586.03;4235038;28;20816;-66
2023/07/31 03:05:47;;;;;;;7.03;3.90;;;;;;;15.83;91.47;99590.91;4232720;28;21747;-66
2023/07/31 03:08:14;;;;;;;5.43;3.87;;;;;;;15.86;91.34;99586.94;4243278;28;20263;-67
2023/07/31 03:10:40;;;;;;;9.67;3.70;;;;;;;15.87;91.27;99592.19;4240482;28;21229;-67
2023/07/31 03:13:07;;;;;;;9.63;3.83;;;;;;;15.97;90.73;99598.13;4236772;28;20247;-68
2023/07/31 03:15:33;;;;;;;6.70;3.83;;;;;;;15.99;90.76;99593.31;4225822;28;20320;-66
2023/07/31 03:18:00;;;;;;;9.03;3.63;;;;;;;16.05;90.56;99594.34;4240253;28;20227;-66
2023/07/31 03:20:26;;;;;;;5.83;3.50;;;;;;;16.14;90.30;99603.22;4228480;28;22871;-65
2023/07/31 03:22:53;;;;;;;6.47;3.97;;;;;;;16.11;90.03;99600.91;4236760;28;21565;-68
2023/07/31 03:25:19;;;;;;;6.27;3.93;;;;;;;16.13;90.40;99607.00;4243378;28;20300;-68
2023/07/31 03:27:46;;;;;;;6.83;3.77;;;;;;;16.14;90.00;99606.78;4250211;28;20777;-66
2023/07/31 03:30:13;;;;;;;8.17;3.83;;;;;;;16.13;90.17;99598.81;4241294;28;20472;-68
2023/07/31 03:32:39;;;;;;;6.90;3.50;;;;;;;16.21;89.76;99614.16;4242245;28;22327;-68
2023/07/31 03:35:06;;;;;;;5.40;3.27;;;;;;;16.26;89.65;99617.97;4253215;28;20261;-69
2023/07/31 03:37:33;;;;;;;12.43;3.77;;;;;;;16.23;89.89;99603.88;4241378;28;20227;-67
2023/07/31 03:40:00;;;;;;;7.33;3.80;;;;;;;16.27;89.41;99611.47;4251070;28;20306;-69
2023/07/31 03:42:26;;;;;;;7.27;3.27;;;;;;;16.22;89.76;99619.44;4252061;28;21637;-69
2023/07/31 03:44:53;;;;;;;5.27;3.13;;;;;;;16.22;90.41;99618.56;4242770;28;20266;-66
2023/07/31 03:47:20;;;;;;;8.90;3.50;;;;;;;16.26;89.88;99617.13;4246897;28;20342;-67
2023/07/31 03:49:47;;;;;;;6.90;3.23;;;;;;;16.35;89.98;99624.09;4261846;28;21844;-68
2023/07/31 03:52:14;;;;;;;7.57;3.20;;;;;;;16.43;89.30;99629.34;4236016;28;20356;-68
2023/07/31 03:54:41;;;;;;;6.30;3.30;;;;;;;16.39;88.91;99632.72;4251794;28;25844;-70
2023/07/31 03:57:07;;;;;;;6.23;3.63;;;;;;;16.44;89.19;99635.69;4256034;28;22234;-68
2023/07/31 03:59:34;;;;;;;7.73;3.37;;;;;;;16.44;89.04;99628.31;4250372;28;20444;-67
2023/07/31 04:02:01;;;;;;;5.43;3.10;;;;;;;16.49;88.50;99624.97;4262535;28;20234;-69
2023/07/31 04:04:27;;;;;;;4.17;2.93;;;;;;;16.44;88.60;99631.03;4283991;28;20328;-67
2023/07/31 04:06:54;;;;;;;6.70;3.47;;;;;;;16.48;88.55;99637.78;4243525;28;20308;-69
2023/07/31 04:09:21;;;;;;;10.57;3.60;;;;;;;16.49;88.18;99635.91;4231285;28;20228;-68
2023/07/31 04:11:47;;;;;;;5.37;3.40;;;;;;;16.53;88.59;99641.78;4252951;28;20513;-69
2023/07/31 04:14:14;;;;;;;7.83;3.10;;;;;;;16.58;88.01;99648.31;4269451;28;20335;-69
2023/07/31 04:16:41;;;;;;;5.87;3.03;;;;;;;16.53;87.79;99649.97;4256770;28;20241;-69
2023/07/31 04:19:10;;;;;;;4.50;3.10;;;;;;;16.62;87.36;99659.69;4255175;28;20247;-69
2023/07/31 04:21:37;;;;;;;6.93;3.20;;;;;;;16.53;88.01;99656.31;4241278;28;21355;-68
2023/07/31 04:24:03;;;;;;;5.67;3.00;;;;;;;16.57;87.80;99654.84;4253478;28;20257;-68
2023/07/31 04:26:30;;;;;;;6.00;2.97;;;;;;;16.54;87.80;99647.03;4250461;28;20238;-68
2023/07/31 04:28:57;;;;;;;8.00;3.37;;;;;;;16.54;87.73;99652.50;4250722;28;20232;-69
2023/07/31 04:31:25;;;;;;;8.10;3.33;;;;;;;16.59;87.29;99655.47;4256943;28;20239;-67
2023/07/31 04:33:51;;;;;;;8.63;2.90;;;;;;;16.63;86.70;99647.72;4244941;28;21731;-66
2023/07/31 04:36:18;;;;;;;8.73;3.40;;;;;;;16.66;87.05;99660.94;4230748;28;20243;-67
2023/07/31 04:38:45;;;;;;;14.50;3.40;;;;;;;16.62;87.04;99654.22;4248667;28;20243;-68
2023/07/31 04:41:11;;;;;;;8.60;3.50;;;;;;;16.73;87.03;99661.78;4240307;28;20238;-68
2023/07/31 04:43:39;;;;;;;7.20;3.30;;;;;;;16.73;86.42;99663.69;4246393;28;20468;-67
2023/07/31 04:46:06;;;;;;;7.40;3.40;;;;;;;16.72;86.96;99662.00;4247429;28;20622;-70
2023/07/31 04:48:33;;;;;;;6.27;3.40;;;;;;;16.77;86.75;99662.22;4261909;28;21476;-68
2023/07/31 04:50:59;;;;;;;5.03;3.23;;;;;;;16.83;86.22;99652.34;4232094;28;20595;-67
2023/07/31 04:53:26;;;;;;;10.47;3.73;;;;;;;16.86;86.39;99658.25;4239202;28;20803;-68
2023/07/31 04:55:53;;;;;;;10.67;3.23;;;;;;;16.80;86.40;99648.97;4253702;28;20235;-67
2023/07/31 04:58:19;;;;;;;7.20;3.43;;;;;;;16.94;85.76;99652.63;4234496;28;20282;-68
2023/07/31 05:00:46;;;;;;;7.33;3.40;;;;;;;16.93;86.11;99648.19;4247864;28;20286;-68
2023/07/31 05:03:12;;;;;;;11.03;3.47;;;;;;;16.93;85.56;99655.56;4252505;28;21074;-67
2023/07/31 05:05:39;;;;;;;4.53;3.07;;;;;;;16.97;85.50;99667.75;4248419;28;21712;-67
2023/07/31 05:08:06;;;;;;;6.70;3.40;;;;;;;17.03;85.40;99658.72;4234842;28;20232;-68
2023/07/31 05:10:32;;;;;;;9.53;3.30;;;;;;;17.14;84.66;99665.47;4224323;28;20231;-69
2023/07/31 05:12:59;;;;;;;5.90;3.33;;;;;;;17.02;84.84;99667.13;4230640;28;20318;-68
2023/07/31 05:15:26;;;;;;;8.43;3.20;;;;;;;16.93;85.23;99667.34;4227573;28;21102;-67
2023/07/31 05:17:52;;;;;;;5.07;3.30;;;;;;;16.97;84.97;99667.75;4244538;28;20272;-68
2023/07/31 05:20:20;;;;;;;7.23;3.10;;;;;;;17.04;84.87;99674.06;4248026;28;20226;-68
2023/07/31 05:22:46;;;;;;;9.63;3.03;;;;;;;17.21;83.96;99671.78;4254388;28;20230;-69
2023/07/31 05:25:13;;;;;;;6.70;2.97;;;;;;;17.19;83.91;99673.03;4230381;28;20231;-66
2023/07/31 05:27:40;;;;;;;8.80;2.97;;;;;;;17.31;83.38;99673.25;4242918;28;25089;-69
2023/07/31 05:30:07;;;;;;;7.53;3.07;;;;;;;17.29;83.18;99672.63;4241765;28;21465;-68
2023/07/31 05:32:33;;;;;;;8.83;2.90;;;;;;;17.32;83.01;99683.13;4216633;28;20883;-65
2023/07/31 05:35:00;;;;;;;9.13;3.10;;;;;;;17.19;83.02;99682.09;4261065;28;20292;-70
2023/07/31 05:37:27;;;;;;;9.63;2.57;;;;;;;17.15;83.47;99680.00;4230528;28;21746;-66
2023/07/31 05:39:53;;;;;;;5.50;2.87;;;;;;;17.11;83.10;99693.25;4224840;28;20404;-68
2023/07/31 05:42:20;;;;;;;8.10;2.90;;;;;;;17.15;82.96;99686.28;4231385;28;20240;-72
2023/07/31 05:44:47;;;;;;;6.33;3.13;;;;;;;17.30;81.86;99686.09;4252568;28;22675;-67
2023/07/31 05:47:13;;;;;;;5.97;2.60;;;;;;;17.27;81.33;99698.31;4230071;28;20243;-67
2023/07/31 05:49:40;;;;;;;5.90;3.23;;;;;;;17.25;81.50;99689.47;4227385;28;20236;-67
2023/07/31 05:52:07;;;;;;;6.37;2.70;;;;;;;17.22;81.94;99695.34;4245728;28;20242;-70
2023/07/31 05:54:33;;;;;;;5.97;2.80;;;;;;;17.31;81.52;99703.34;4235532;28;20309;-69
2023/07/31 05:57:00;;;;;;;6.47;2.70;;;;;;;17.44;80.36;99706.09;4229617;28;24832;-69
2023/07/31 05:59:27;;;;;;;4.87;2.50;;;;;;;17.34;80.61;99703.75;4224936;28;20231;-67
2023/07/31 06:01:54;;;;;;;12.47;2.40;;;;;;;17.37;80.59;99703.34;4240598;28;20248;-70
2023/07/31 06:04:20;;;;;;;8.73;2.63;;;;;;;17.46;79.58;99706.72;4229709;28;20631;-69
2023/07/31 06:06:51;;;;;;;5.50;2.27;;;;;;;17.52;79.70;99708.59;4233995;28;22291;-71
2023/07/31 06:09:17;;;;;;;11.23;2.80;;;;;;;17.45;79.83;99706.94;4241442;28;20245;-71
2023/07/31 06:11:44;;;;;;;10.20;2.43;;;;;;;17.38;79.91;99717.84;4224827;28;20238;-71
2023/07/31 06:14:11;;;;;;;5.77;2.83;;;;;;;17.33;81.39;99720.38;4223042;28;20908;-70
2023/07/31 06:16:37;;;;;;;4.70;2.63;;;;;;;17.37;80.91;99719.75;4231392;28;20236;-69
2023/07/31 06:19:04;;;;;;;7.67;2.70;;;;;;;17.41;81.33;99711.97;4227907;28;22839;-69
2023/07/31 06:21:31;;;;;;;8.27;3.43;;;;;;;17.32;82.29;99716.81;4245719;28;20345;-68
2023/07/31 06:23:57;;;;;;;7.30;3.17;;;;;;;17.19;82.75;99717.66;4231549;28;26260;-71
2023/07/31 06:26:25;;;;;;;7.53;3.23;;;;;;;17.10;83.72;99722.50;4224637;28;20238;-69
2023/07/31 06:28:51;;;;;;;6.57;3.17;;;;;;;17.02;83.17;99719.09;4228510;28;20266;-71
2023/07/31 06:31:20;;;;;;;7.40;2.97;;;;;;;16.92;83.68;99714.00;4240565;28;20248;-70
2023/07/31 06:33:47;;;;;;;10.80;3.30;;;;;;;16.91;84.93;99710.44;4223383;28;20231;-70
2023/07/31 06:36:13;;;;;;;6.10;2.97;;;;;;;17.03;83.44;99713.41;4235387;28;21743;-73
2023/07/31 06:38:40;;;;;;;6.07;3.20;;;;;;;17.00;83.59;99724.78;4222631;28;23991;-71
2023/07/31 06:41:06;;;;;;;8.73;2.90;;;;;;;17.02;83.24;99722.69;4237210;28;20697;-70
2023/07/31 06:43:33;;;;;;;10.43;3.23;;;;;;;17.18;82.71;99717.88;4243718;28;22214;-67
2023/07/31 06:46:05;;;;;;;6.60;3.03;;;;;;;17.19;83.19;99717.66;4233224;28;22470;-72
2023/07/31 06:48:32;;;;;;;9.93;3.33;;;;;;;17.21;82.05;99720.16;4243999;28;20242;-69
2023/07/31 06:51:00;;;;;;;7.83;3.27;;;;;;;17.26;82.28;99725.84;4256308;28;24326;-67
2023/07/31 06:53:28;;;;;;;12.37;3.13;;;;;;;17.34;81.89;99722.06;4238784;28;20399;-68
2023/07/31 06:55:54;;;;;;;7.43;2.70;;;;;;;17.35;81.49;99723.78;4244937;28;20574;-67
2023/07/31 06:58:21;;;;;;;6.03;2.53;;;;;;;17.38;80.54;99723.31;4238808;28;20294;-71
2023/07/31 07:00:49;;;;;;;8.37;3.10;;;;;;;17.52;80.50;99719.53;4244180;28;20413;-69
2023/07/31 07:03:18;;;;;;;5.57;2.83;;;;;;;17.62;80.45;99719.13;4234415;28;20365;-69
2023/07/31 07:05:44;;;;;;;8.37;2.77;;;;;;;17.96;78.69;99724.59;4246442;28;20537;-70
2023/07/31 07:08:11;;;;;;;6.30;2.83;;;;;;;18.29;78.13;99720.91;4262856;28;20445;-69
2023/07/31 07:10:38;;;;;;;8.70;2.97;;;;;;;18.66;75.95;99723.94;4267164;28;20362;-70
2023/07/31 07:13:05;;;;;;;9.07;2.60;;;;;;;19.10;74.73;99719.50;4274875;28;20234;-67
2023/07/31 07:15:31;;;;;;;7.33;2.30;;;;;;;20.43;68.99;99724.00;4248020;28;20235;-69
2023/07/31 07:18:03;;;;;;;6.77;2.30;;;;;;;21.29;65.36;99720.31;4248565;28;20530;-70
2023/07/31 07:20:30;;;;;;;5.30;2.60;;;;;;;21.91;64.13;99721.84;4234660;28;21775;-70
2023/07/31 07:22:56;;;;;;;7.10;2.53;;;;;;;22.00;62.03;99721.22;4254348;28;20752;-71
2023/07/31 07:25:23;;;;;;;6.30;2.40;;;;;;;21.73;62.82;99714.53;4277563;28;20231;-71
2023/07/31 07:27:51;;;;;;;8.83;2.33;;;;;;;21.87;62.35;99717.88;4245559;28;20240;-72
2023/07/31 07:30:17;;;;;;;6.53;2.47;;;;;;;21.55;63.63;99719.03;4270988;28;20235;-69
2023/07/31 07:32:47;;;;;;;4.43;2.13;;;;;;;21.18;64.28;99720.06;4250825;28;20232;-69
2023/07/31 07:35:14;;;;;;;10.53;3.03;;;;;;;21.10;63.81;99700.28;4299283;28;20476;-69
2023/07/31 07:37:41;;;;;;;7.43;2.37;;;;;;;21.37;62.20;99704.28;4242173;28;20247;-69
2023/07/31 07:40:08;;;;;;;4.47;2.60;;;;;;;20.79;64.08;99711.31;4258448;28;22121;-68
2023/07/31 07:42:35;;;;;;;5.83;2.37;;;;;;;20.99;64.41;99715.66;4223685;28;22516;-69
2023/07/31 07:45:03;;;;;;;8.80;2.50;;;;;;;21.01;64.54;99724.53;4253089;28;20227;-68
2023/07/31 07:47:29;;;;;;;4.90;2.30;;;;;;;20.68;64.84;99709.28;4247445;28;25744;-68
2023/07/31 07:49:56;;;;;;;5.07;2.40;;;;;;;20.52;65.87;99713.53;4216061;28;20304;-69
2023/07/31 07:52:22;;;;;;;8.33;2.50;;;;;;;20.80;65.45;99724.00;4226098;28;20278;-70
2023/07/31 07:54:49;;;;;;;11.27;2.70;;;;;;;20.74;65.38;99727.66;4231017;28;20234;-70
2023/07/31 07:57:16;;;;;;;8.30;2.67;;;;;;;21.65;62.58;99722.06;4246129;28;21559;-69
2023/07/31 07:59:43;;;;;;;6.37;2.30;;;;;;;21.59;62.74;99717.53;4228388;28;20613;-75
2023/07/31 08:02:09;;;;;;;7.33;2.53;;;;;;;21.98;61.60;99717.88;4227698;28;20242;-67
2023/07/31 08:04:36;;;;;;;4.80;2.40;;;;;;;21.73;61.82;99711.78;4228018;28;20236;-70
2023/07/31 08:07:02;;;;;;;9.23;2.90;;;;;;;21.66;62.43;99703.63;4248657;28;20314;-69
2023/07/31 08:09:29;;;;;;;6.87;2.57;;;;;;;22.22;61.36;99712.31;4250623;28;20239;-74
2023/07/31 08:12:01;;;;;;;10.77;2.50;;;;;;;23.32;56.43;99713.41;4234794;28;20812;-71
2023/07/31 08:14:28;;;;;;;4.40;2.30;;;;;;;23.02;57.13;99709.81;4250993;28;20607;-71
2023/07/31 08:17:00;;;;;;;8.93;2.67;;;;;;;22.68;56.57;99706.97;4234096;28;20242;-70
2023/07/31 08:19:27;;;;;;;8.83;2.50;;;;;;;22.76;57.11;99701.06;4229711;28;20606;-71
2023/07/31 08:21:54;;;;;;;9.73;2.73;;;;;;;22.92;56.12;99707.69;4230589;28;21641;-70
2023/07/31 08:24:24;;;;;;;5.73;2.13;;;;;;;22.99;55.93;99712.22;4205977;28;20242;-71
2023/07/31 08:26:51;;;;;;;5.20;2.30;;;;;;;23.40;55.60;99707.47;4254333;28;20337;-69
2023/07/31 08:29:17;;;;;;;7.53;2.20;;;;;;;24.07;54.13;99705.75;4243196;28;20235;-70
2023/07/31 08:31:44;;;;;;;6.63;2.27;;;;;;;24.29;53.34;99708.53;4233596;28;21319;-69
2023/07/31 08:34:11;;;;;;;8.43;2.77;;;;;;;23.58;53.66;99709.16;4235609;28;21075;-72
2023/07/31 08:36:37;;;;;;;6.47;2.47;;;;;;;23.05;54.90;99716.75;4253327;28;20232;-68
2023/07/31 08:39:06;;;;;;;6.00;2.13;;;;;;;22.64;56.08;99716.81;4246172;28;20236;-67
2023/07/31 08:41:38;;;;;;;5.87;2.20;;;;;;;23.12;55.63;99709.16;4208512;28;21768;-69
2023/07/31 08:44:04;;;;;;;5.63;2.40;;;;;;;22.62;54.29;99703.28;4247547;28;25600;-68
2023/07/31 08:46:32;;;;;;;5.87;2.30;;;;;;;22.81;54.60;99713.28;4239485;28;20239;-70
2023/07/31 08:49:00;;;;;;;5.73;2.30;;;;;;;22.71;54.23;99713.91;4244297;28;20350;-68
2023/07/31 08:51:28;;;;;;;8.30;2.23;;;;;;;22.78;55.06;99717.38;4267191;28;25381;-73
2023/07/31 08:53:54;;;;;;;6.67;2.70;;;;;;;23.13;54.74;99710.84;4249110;28;20341;-69
2023/07/31 08:56:21;;;;;;;6.93;2.50;;;;;;;22.68;54.94;99711.63;4246459;28;21030;-70
2023/07/31 08:58:49;;;;;;;7.17;2.07;;;;;;;22.44;54.58;99711.72;4240682;28;20240;-72
2023/07/31 09:01:16;;;;;;;5.03;1.93;;;;;;;22.37;54.82;99706.31;4335474;28;21616;-70
2023/07/31 09:03:44;;;;;;;5.10;1.97;;;;;;;23.01;54.44;99712.81;4267280;28;21113;-71
2023/07/31 09:06:12;;;;;;;6.80;2.43;;;;;;;22.59;55.29;99703.75;4233683;28;20243;-71
2023/07/31 09:08:40;;;;;;;9.23;2.10;;;;;;;22.54;54.79;99713.88;4257643;28;20231;-76
2023/07/31 09:11:07;;;;;;;4.53;1.90;;;;;;;23.01;54.08;99716.41;4277911;28;20223;-71
2023/07/31 09:13:34;;;;;;;9.43;2.23;;;;;;;22.75;54.96;99704.91;4253535;28;20227;-72
2023/07/31 09:16:00;;;;;;;11.47;2.47;;;;;;;22.49;53.29;99703.56;4275143;28;20312;-73
2023/07/31 09:18:27;;;;;;;5.47;2.00;;;;;;;22.29;55.60;99703.94;4248398;28;20563;-71
2023/07/31 09:21:04;;;;;;;5.60;1.80;;;;;;;22.43;55.64;99710.06;4251400;28;21081;-68
2023/07/31 09:23:45;;;;;;;6.30;2.00;;;;;;;22.71;54.84;99711.16;4243455;28;23044;-68
2023/07/31 09:26:28;;;;;;;7.47;2.23;;;;;;;22.57;54.29;99705.94;4259158;28;22287;-71
2023/07/31 09:28:55;;;;;;;5.73;2.10;;;;;;;22.14;55.44;99699.78;4259139;28;20232;-70
2023/07/31 09:31:41;;;;;;;6.10;2.27;;;;;;;22.70;52.67;99706.72;4231839;28;20873;-69
2023/07/31 09:34:08;;;;;;;6.60;2.13;;;;;;;22.81;52.30;99707.75;4240684;28;20239;-67
2023/07/31 09:36:48;;;;;;;5.40;1.90;;;;;;;22.83;52.63;99709.19;4231227;28;21473;-67
2023/07/31 09:39:16;;;;;;;3.90;1.77;;;;;;;23.28;50.55;99707.56;4233285;28;20321;-64
2023/07/31 09:41:47;;;;;;;4.63;1.53;;;;;;;23.09;50.65;99706.91;4222216;28;20231;-69
2023/07/31 09:44:14;;;;;;;8.40;1.80;;;;;;;22.79;53.05;99708.00;4214300;28;21372;-67
2023/07/31 09:46:42;;;;;;;6.30;1.93;;;;;;;22.57;52.91;99716.13;4220704;28;20227;-68
2023/07/31 09:49:09;;;;;;;6.63;2.07;;;;;;;22.34;53.26;99717.00;4244201;28;21160;-69
2023/07/31 09:51:41;;;;;;;5.60;1.90;;;;;;;22.42;52.99;99713.88;4244832;28;20230;-69
2023/07/31 09:54:12;;;;;;;3.37;1.47;;;;;;;23.18;50.77;99713.75;4240820;28;21469;-67
2023/07/31 09:56:49;;;;;;;7.03;1.67;;;;;;;22.62;50.99;99711.53;4258360;28;21520;-66
2023/07/31 09:59:17;;;;;;;7.33;1.53;;;;;;;22.87;49.21;99707.63;4236646;28;20643;-68
2023/07/31 10:01:48;;;;;;;3.63;1.63;;;;;;;22.91;49.90;99703.25;4234990;28;20243;-67
2023/07/31 10:04:15;;;;;;;5.13;1.53;;;;;;;22.88;49.87;99700.16;4227437;28;20230;-68
2023/07/31 10:06:43;;;;;;;2.90;1.40;;;;;;;23.11;50.90;99716.59;4238194;28;20248;-69
2023/07/31 10:09:11;;;;;;;5.57;1.63;;;;;;;23.35;47.25;99699.94;4234871;28;21141;-68
2023/07/31 10:11:50;;;;;;;4.13;1.40;;;;;;;22.94;48.43;99708.31;4218075;28;20234;-68
2023/07/31 10:14:20;;;;;;;5.93;1.40;;;;;;;22.62;48.45;99697.75;4239916;28;20231;-67
2023/07/31 10:16:47;;;;;;;3.53;1.30;;;;;;;22.88;47.00;99698.25;4227041;28;21562;-67
2023/07/31 10:19:14;;;;;;;3.00;1.50;;;;;;;23.04;47.36;99701.28;4229130;28;20314;-66
2023/07/31 10:21:42;;;;;;;5.03;1.30;;;;;;;23.03;46.67;99697.69;4223794;28;20314;-69
2023/07/31 10:24:09;;;;;;;4.40;1.10;;;;;;;23.23;45.81;99697.25;4226152;28;20442;-68
2023/07/31 10:26:37;;;;;;;6.37;1.70;;;;;;;23.33;46.06;99706.81;4220527;28;21743;-67
2023/07/31 10:29:05;;;;;;;3.33;1.57;;;;;;;23.31;45.82;99701.50;4228732;28;20245;-68
2023/07/31 10:31:32;;;;;;;3.53;1.43;;;;;;;23.22;46.45;99691.97;4248415;28;22766;-68
2023/07/31 10:34:00;;;;;;;4.00;1.40;;;;;;;22.98;45.79;99699.50;4243920;28;20246;-66
2023/07/31 10:36:27;;;;;;;5.50;1.83;;;;;;;23.38;45.17;99691.13;4226944;28;20425;-67
2023/07/31 10:38:56;;;;;;;7.70;1.60;;;;;;;23.36;44.22;99706.28;4239140;28;21974;-68
2023/07/31 10:41:41;;;;;;;8.00;1.27;;;;;;;23.08;44.31;99703.28;4239609;28;20930;-66
2023/07/31 10:44:07;;;;;;;4.63;1.20;;;;;;;22.92;43.88;99695.84;4248687;28;20402;-67
2023/07/31 10:46:34;;;;;;;3.60;1.20;;;;;;;23.15;45.26;99692.09;4242416;28;20303;-68
2023/07/31 10:49:03;;;;;;;4.03;0.90;;;;;;;23.37;43.72;99702.44;4244094;28;20225;-68
2023/07/31 10:51:36;;;;;;;2.93;1.03;;;;;;;23.24;44.74;99704.44;4228678;28;20238;-70
2023/07/31 10:54:14;;;;;;;5.50;1.50;;;;;;;23.33;44.51;99704.03;4236195;28;20231;-68
2023/07/31 10:56:44;;;;;;;3.77;1.30;;;;;;;23.42;42.86;99697.00;4258641;28;20821;-69
2023/07/31 10:59:12;;;;;;;2.27;1.00;;;;;;;23.26;44.82;99693.16;4214581;28;20246;-68
2023/07/31 11:01:52;;;;;;;3.10;1.13;;;;;;;23.22;44.72;99703.03;4237855;28;22790;-66
2023/07/31 11:04:26;;;;;;;5.23;1.40;;;;;;;22.95;45.43;99698.09;4223185;28;21757;-67
2023/07/31 11:06:59;;;;;;;5.10;1.27;;;;;;;23.13;44.43;99696.22;4209265;28;25209;-69
2023/07/31 11:09:31;;;;;;;4.63;1.20;;;;;;;23.11;45.55;99691.75;4240897;28;20260;-68
2023/07/31 11:12:01;;;;;;;4.67;1.33;;;;;;;23.26;44.74;99688.44;4261324;28;20591;-69
2023/07/31 11:14:28;;;;;;;5.43;1.40;;;;;;;23.77;43.92;99684.84;4252042;28;21127;-70
2023/07/31 11:16:55;;;;;;;9.33;1.53;;;;;;;24.29;43.11;99694.69;4250153;28;20224;-68
2023/07/31 11:19:25;;;;;;;6.93;1.60;;;;;;;24.25;43.42;99690.78;4236225;28;20273;-69
2023/07/31 11:21:55;;;;;;;4.93;1.60;;;;;;;23.69;43.94;99694.38;4250523;28;20307;-68
2023/07/31 11:24:22;;;;;;;5.90;1.40;;;;;;;23.34;43.79;99695.50;4254344;28;20280;-68
2023/07/31 11:26:54;;;;;;;3.93;1.20;;;;;;;23.69;43.15;99686.09;4316588;28;21991;-67
2023/07/31 11:29:20;;;;;;;2.40;1.03;;;;;;;23.39;44.07;99684.53;4314131;28;20240;-69
2023/07/31 11:31:49;;;;;;;3.53;0.97;;;;;;;23.28;43.12;99690.97;4239980;28;20992;-68
2023/07/31 11:34:17;;;;;;;6.70;1.47;;;;;;;23.57;44.77;99688.13;4252669;28;20242;-69
2023/07/31 11:36:53;;;;;;;3.53;1.20;;;;;;;23.86;42.17;99683.34;4241067;28;20290;-67